Overton's Hourly Summary for Tuesday, April 18, 2017
Hour Temp
(f)
RH
(%)
Solar Rad.
(MJ/m2)
Rainfall
(in)
Wind
(mph)
4/18/2017 12:00 AM 66 96 0 0 0.05
4/18/2017 1:00 AM 65 95 0 0 0.24
4/18/2017 2:00 AM 64 97 0 0 0.15
4/18/2017 3:00 AM 65 97 0 0 0
4/18/2017 4:00 AM 65 97 0 0 0.02
4/18/2017 5:00 AM 64 98 0 0 0.13
4/18/2017 6:00 AM 63 98 0 0 0
4/18/2017 7:00 AM 63 98 0.01 0 0
4/18/2017 8:00 AM 64 95 0.19 0 0
4/18/2017 9:00 AM 68 87 0.61 0 0.11
4/18/2017 10:00 AM 72 82 1.17 0 0.91
4/18/2017 11:00 AM 76 73 1.84 0 3.17
4/18/2017 12:00 PM 78 66 1.92 0 4.71
4/18/2017 1:00 PM 80 61 2.74 0 6.3
4/18/2017 2:00 PM 81 59 2.63 0 6.54
4/18/2017 3:00 PM 81 55 2.56 0 5.67
4/18/2017 4:00 PM 81 57 2.09 0 4.16
4/18/2017 5:00 PM 78 60 0.86 0 2.56
4/18/2017 6:00 PM 76 75 0.45 0 0.75
4/18/2017 7:00 PM 76 72 0.73 0 0.59
4/18/2017 8:00 PM 72 90 0.1 0 0.08
4/18/2017 9:00 PM 67 95 0 0 0.01
4/18/2017 10:00 PM 66 91 0 0 0.02
4/18/2017 11:00 PM 66 91 0 0 0.14
Data Summary 70 82 17.90 0.00 1.51